Flight Track Log - Related Links

Times and Time Zones

All times are in EDT time to prevent confusion due to time zone crossing. See the AWE1842 flight status page for this flight to view local times or setup timezone preferences in your user account.

Time Position Orientation Groundspeed Altitude Reporting Facility
EDT Latitude Longitude Course Direction KTS MPH feet Rate Location/Type
Sat 05:25:02 AM 28.4170 -81.3220 180° South 164 189 1,200  Level FlightAware ADS-B
Sat 05:25:22 AM 28.4020 -81.3270 196° South 171 197 2,100 2,400 Climbing FlightAware ADS-B
Sat 05:25:42 AM 28.3870 -81.3340 202° Southwest 186 214 2,800 2,400 Climbing FlightAware ADS-B
Sat 05:25:57 AM 28.3790 -81.3470 235° Southwest 197 227 3,500 3,000 Climbing FlightAware ADS-B
Sat 05:26:22 AM 28.3760 -81.3730 263° West 214 246 4,800 2,945 Climbing FlightAware ADS-B
Sat 05:26:52 AM 28.3720 -81.4110 263° West 238 274 6,200 3,067 Climbing FlightAware ADS-B
Sat 05:27:07 AM 28.3680 -81.4290 256° West 250 288 7,100 3,450 Climbing FlightAware ADS-B
Sat 05:27:32 AM 28.3670 -81.4610 268° West 262 302 8,500 3,300 Climbing FlightAware ADS-B
Sat 05:27:47 AM 28.3670 -81.4830 270° West 270 311 9,300 2,945 Climbing FlightAware ADS-B
Sat 05:28:27 AM 28.3660 -81.5430 269° West 298 343 11,200 3,318 Climbing FlightAware ADS-B
Sat 05:29:12 AM 28.3640 -81.6130 268° West 300 345 14,000 3,520 Climbing FlightAware ADS-B
Sat 05:29:42 AM 28.3630 -81.6600 269° West 305 351 15,600 3,225 Climbing FlightAware ADS-B
Sat 05:30:32 AM 28.3610 -81.7390 268° West 305 351 18,300 2,526 Climbing FlightAware ADS-B
Sat 05:31:17 AM 28.3590 -81.8160 268° West 343 395 19,600 1,765 Climbing FlightAware ADS-B
Sat 05:31:57 AM 28.3860 -81.8910 292° West 390 449 20,800 2,259 Climbing FlightAware ADS-B
Sat 05:32:42 AM 28.4440 -81.9540 316° Northwest 396 456 22,800 2,400 Climbing FlightAware ADS-B
Sat 05:33:22 AM 28.5040 -82.0070 322° Northwest 422 486 24,200 1,800 Climbing FlightAware ADS-B
Sat 05:34:02 AM 28.5750 -82.0470 334° Northwest 448 516 25,200 1,636 Climbing FlightAware ADS-B
Sat 05:34:17 AM 28.6060 -82.0550 347° North 467 537 25,700 1,700 Climbing FlightAware ADS-B
Sat 05:35:02 AM 28.7040 -82.0790 348° North 480 552 26,900 1,765 Climbing FlightAware ADS-B
Sat 05:35:42 AM 28.7940 -82.0950 351° North 489 563 28,200 2,025 Climbing FlightAware ADS-B
Sat 05:36:22 AM 28.8860 -82.1080 353° North 491 565 29,600 2,471 Climbing FlightAware ADS-B
Sat 05:37:07 AM 28.9820 -82.1220 353° North 475 547 31,700 2,541 Climbing FlightAware ADS-B
Sat 05:37:47 AM 29.0690 -82.1340 312° West 472 543 33,200 2,250 Climbing FlightAware ADS-B
Sat 05:38:27 AM 29.1570 -82.1460 353° North 467 537 34,700 2,047 Climbing FlightAware ADS-B
Sat 05:39:12 AM 29.2540 -82.1610 352° North 463 533 36,100 1,835 Climbing FlightAware ADS-B
Sat 05:39:52 AM 29.3390 -82.1730 353° North 458 527 37,300 1,341 Climbing FlightAware ADS-B
Sat 05:40:37 AM 29.4320 -82.1870 353° North 458 527 38,000 494 Climbing FlightAware ADS-B
Sat 05:41:17 AM 29.5150 -82.2000 352° North 456 525 38,000  Level FlightAware ADS-B
Sat 05:41:57 AM 29.5930 -82.2110 353° North 452 520 38,000  Level FlightAware ADS-B
Sat 05:42:42 AM 29.6900 -82.2260 352° North 439 505 38,000  Level FlightAware ADS-B
Sat 05:43:37 AM 29.8030 -82.2430 353° North 442 509 38,000  Level FlightAware ADS-B
Sat 05:44:22 AM 29.8890 -82.2570 352° North 442 509 38,000  Level FlightAware ADS-B
Sat 05:45:02 AM 29.9580 -82.2680 352° North 442 509 38,000  Level FlightAware ADS-B
Sat 05:45:37 AM 30.0440 -82.2790 354° North 443 510 38,000  Level FlightAware ADS-B
Sat 05:46:27 AM 30.1440 -82.2950 352° North 445 512 38,000  Level FlightAware ADS-B
Sat 05:47:07 AM 30.2130 -82.3060 352° North 445 512 38,000  Level FlightAware ADS-B
Sat 05:47:47 AM 30.2830 -82.3170 352° North 445 512 38,000  Level FlightAware ADS-B
Sat 05:48:27 AM 30.3520 -82.3290 351° North 445 512 38,000  Level FlightAware ADS-B
Sat 05:49:07 AM 30.4210 -82.3400 352° North 445 512 38,000  Level FlightAware ADS-B
Sat 05:49:47 AM 30.4910 -82.3510 352° North 445 512 38,000  Level FlightAware ADS-B
Sat 05:50:37 AM 30.5770 -82.3650 352° North 445 512 38,000  Level FlightAware ADS-B
Sat 05:51:17 AM 30.6470 -82.3770 352° North 445 512 38,000  Level FlightAware ADS-B
Sat 05:51:57 AM 30.7160 -82.3880 352° North 445 512 38,000  Level FlightAware ADS-B
Sat 05:52:37 AM 30.7850 -82.3990 352° North 445 512 38,000  Level FlightAware ADS-B
Sat 05:53:17 AM 30.8550 -82.4110 352° North 445 512 38,000  Level FlightAware ADS-B
Sat 05:54:07 AM 30.9410 -82.4250 352° North 445 512 38,000  Level FlightAware ADS-B
Sat 05:54:47 AM 31.0110 -82.4360 352° North 445 512 38,000  Level FlightAware ADS-B
Sat 05:55:27 AM 31.0800 -82.4480 352° North 445 512 38,000  Level FlightAware ADS-B
Sat 05:55:55 AM 31.3558 -82.4839 352° North 467 537 38,000  Level Jacksonville Center
Sat 05:56:55 AM 31.4853 -82.4981 355° North 467 537 38,000  Level Jacksonville Center
Sat 05:57:55 AM 31.6189 -82.4972 360° North 472 543 38,000  Level Jacksonville Center
Sat 06:04:07 AM 32.5040 -82.3560 360° North 515 593 38,000  Level FlightAware ADS-B
Sat 06:04:52 AM 32.6080 -82.3390 North 518 596 38,000  Level FlightAware ADS-B
Sat 06:05:27 AM 32.6870 -82.3270 North 520 598 38,000  Level FlightAware ADS-B
Sat 06:06:12 AM 32.7980 -82.3090 North 522 601 38,000  Level FlightAware ADS-B
Sat 06:07:27 AM 32.9780 -82.2800 North 518 596 38,000  Level FlightAware ADS-B
Sat 06:08:07 AM 33.0760 -82.2640 North 521 600 38,000 -927 Level FlightAware ADS-B
Sat 06:09:17 AM 33.2490 -82.2360 North 530 610 36,300 -1,900 Descending FlightAware ADS-B
Sat 06:10:07 AM 33.3710 -82.2170 North 532 612 34,200 -2,867 Descending FlightAware ADS-B
Sat 06:10:47 AM 33.4700 -82.2010 North 542 624 32,000 -2,933 Descending FlightAware ADS-B
Sat 06:11:37 AM 33.5910 -82.1810 North 541 623 29,800 -2,526 Descending FlightAware ADS-B
Sat 06:12:22 AM 33.7030 -82.1650 North 529 609 28,000 -2,118 Descending FlightAware ADS-B
Sat 06:13:02 AM 33.7950 -82.1600 North 509 586 26,800 -1,835 Descending FlightAware ADS-B
Sat 06:13:47 AM 33.9040 -82.1590 360° North 488 562 25,400 -1,835 Descending FlightAware ADS-B
Sat 06:14:27 AM 33.9930 -82.1580 North 476 548 24,200 -1,050 Descending FlightAware ADS-B
Sat 06:15:07 AM 34.0770 -82.1560 North 437 503 24,000 -424 Descending FlightAware ADS-B
Sat 06:15:52 AM 34.1630 -82.1550 North 407 468 23,600 -988 Descending FlightAware ADS-B
Sat 06:16:32 AM 34.2380 -82.1480 North 421 484 22,600 -1,457 Descending FlightAware ADS-B
Sat 06:17:02 AM 34.2860 -82.1120 32° Northeast 434 499 21,900 -1,380 Descending FlightAware ADS-B
Sat 06:18:12 AM 34.3790 -81.9920 47° Northeast 422 486 20,300 -1,029 Descending FlightAware ADS-B
Sat 06:19:22 AM 34.4680 -81.8790 46° Northeast 413 475 19,500 -2,040 Descending FlightAware ADS-B
Sat 06:19:52 AM 34.5140 -81.8210 46° Northeast 426 490 16,900 -3,520 Descending FlightAware ADS-B
Sat 06:20:37 AM 34.5780 -81.7410 46° Northeast 420 483 15,100 -1,137 Descending FlightAware ADS-B
Sat 06:21:27 AM 34.6320 -81.6720 46° Northeast 420 483 15,100  Level FlightAware ADS-B
Sat 06:22:07 AM 34.6780 -81.6150 46° Northeast 420 483 15,100  Level FlightAware ADS-B
Sat 06:22:47 AM 34.7240 -81.5570 46° Northeast 420 483 15,100  Level FlightAware ADS-B
Sat 06:23:27 AM 34.7690 -81.4990 47° Northeast 420 483 15,100  Level FlightAware ADS-B
Sat 06:24:07 AM 34.8150 -81.4410 46° Northeast 420 483 15,100 -3,086 Level FlightAware ADS-B
Sat 06:24:37 AM 34.8394 -81.4269 46° Northeast 284 327 11,500 -5,176 Descending FAA TRACON SMA TRACON (SMA)
Sat 06:24:58 AM 34.8639 -81.4039 38° Northeast 288 331 10,700 -2,195 Descending FAA TRACON SMA TRACON (SMA)
Sat 06:25:18 AM 34.8817 -81.3878 37° Northeast 283 326 10,000 -1,953 Descending FAA TRACON SMA TRACON (SMA)
Sat 06:25:41 AM 34.9014 -81.3669 41° Northeast 282 325 9,300 -1,814 Descending FAA TRACON SMA TRACON (SMA)
Sat 06:26:01 AM 34.9219 -81.3414 46° Northeast 274 315 8,700 -1,622 Descending FAA TRACON SMA TRACON (SMA)
Sat 06:26:18 AM 34.9372 -81.3203 49° Northeast 270 311 8,300 -1,167 Descending FAA TRACON SMA TRACON (SMA)
Sat 06:26:37 AM 34.9525 -81.3000 47° Northeast 264 304 8,000 -1,200 Descending FAA TRACON SMA TRACON (SMA)
Sat 06:26:58 AM 34.9714 -81.2744 48° Northeast 262 302 7,500 -1,500 Descending FAA TRACON SMA TRACON (SMA)
Sat 06:27:17 AM 34.9864 -81.2539 48° Northeast 262 302 7,000 -1,200 Descending FAA TRACON SMA TRACON (SMA)
Sat 06:27:38 AM 35.0011 -81.2336 48° Northeast 261 300 6,700 -878 Descending FAA TRACON SMA TRACON (SMA)
Sat 06:27:58 AM 35.0178 -81.2103 49° Northeast 257 296 6,400 -615 Descending FAA TRACON SMA TRACON (SMA)
Sat 06:28:17 AM 35.0336 -81.1917 44° Northeast 243 280 6,300 -300 Descending FAA TRACON SMA TRACON (SMA)
Sat 06:28:38 AM 35.0464 -81.1767 44° Northeast 217 250 6,200 -450 Descending FAA TRACON SMA TRACON (SMA)
Sat 06:28:57 AM 35.0614 -81.1583 45° Northeast 196 226 6,000 -750 Descending FAA TRACON SMA TRACON (SMA)
Sat 06:29:18 AM 35.0725 -81.1442 46° Northeast 192 221 5,700 -1,463 Descending FAA TRACON SMA TRACON (SMA)
Sat 06:29:38 AM 35.0819 -81.1272 56° Northeast 198 228 5,000 -1,846 Descending FAA TRACON SMA TRACON (SMA)
Sat 06:29:57 AM 35.0947 -81.1067 53° Northeast 196 226 4,500 -1,050 Descending FAA TRACON SMA TRACON (SMA)
Sat 06:30:18 AM 35.1047 -81.0922 50° Northeast 185 213 4,300 -750 Descending FAA TRACON SMA TRACON (SMA)
Sat 06:30:37 AM 35.1131 -81.0811 47° Northeast 147 169 4,000 -977 Descending FAA TRACON SMA TRACON (SMA)
Sat 06:31:01 AM 35.1231 -81.0678 47° Northeast 134 154 3,600 -1,116 Descending FAA TRACON SMA TRACON (SMA)
Sat 06:31:20 AM 35.1325 -81.0558 46° Northeast 121 139 3,200 -1,135 Descending FAA TRACON SMA TRACON (SMA)
Sat 06:31:38 AM 35.1378 -81.0483 49° Northeast 124 143 2,900 -789 Descending FAA TRACON SMA TRACON (SMA)
Sat 06:31:58 AM 35.1467 -81.0356 50° Northeast 127 146 2,700 -769 Descending FAA TRACON SMA TRACON (SMA)
Sat 06:32:17 AM 35.1544 -81.0250 48° Northeast 131 151 2,400 -750 Descending FAA TRACON SMA TRACON (SMA)
Sat 06:32:38 AM 35.1619 -81.0144 49° Northeast 132 152 2,200 -750 Descending FAA TRACON SMA TRACON (SMA)
Sat 06:32:57 AM 35.1711 -81.0022 47° Northeast 128 147 1,900 -750 Descending FAA TRACON SMA TRACON (SMA)
Sat 06:33:18 AM 35.1781 -80.9928 48° Northeast 124 143 1,700 -585 Descending FAA TRACON SMA TRACON (SMA)
Sat 06:33:38 AM 35.1847 -80.9833 49° Northeast 122 140 1,500 -769 Descending FAA TRACON SMA TRACON (SMA)
Sat 06:33:57 AM 35.1936 -80.9711 48° Northeast 122 140 1,200 -750 Descending FAA TRACON SMA TRACON (SMA)
Sat 06:34:18 AM 35.2008 -80.9614 48° Northeast 125 144 1,000 -571 Descending FAA TRACON SMA TRACON (SMA)

Login

Don't have an account? Register now (free) for customized features, flight alerts, and more!